createdAt,value
2022-08-03T00:01:50.523Z,78.16
2022-08-03T00:04:17.374Z,78.17
2022-08-03T00:06:43.824Z,77.70
2022-08-03T00:09:11.324Z,77.89
2022-08-03T00:11:38.287Z,78.03
2022-08-03T00:14:06.297Z,77.68
2022-08-03T00:16:32.831Z,77.85
2022-08-03T00:19:01.075Z,78.08
2022-08-03T00:21:28.583Z,77.98
2022-08-03T00:23:55.042Z,78.48
2022-08-03T00:26:21.943Z,78.65
2022-08-03T00:28:49.449Z,77.19
2022-08-03T00:31:16.333Z,78.26
2022-08-03T00:33:58.441Z,82.60
2022-08-03T00:36:26.420Z,81.40
2022-08-03T00:38:52.818Z,80.34
2022-08-03T00:41:19.227Z,79.26
2022-08-03T00:43:47.373Z,78.76
2022-08-03T00:46:16.440Z,79.65
2022-08-03T00:48:47.157Z,79.63
2022-08-03T00:51:13.739Z,79.48
2022-08-03T00:53:40.169Z,80.07
2022-08-03T00:56:06.792Z,80.21
2022-08-03T00:58:33.285Z,80.12
2022-08-03T01:00:59.848Z,79.77
2022-08-03T01:03:26.330Z,79.93
2022-08-03T01:06:04.729Z,80.17
2022-08-03T01:08:59.514Z,80.06
2022-08-03T01:11:59.877Z,79.79
2022-08-03T01:15:06.145Z,81.31
2022-08-03T01:17:40.117Z,80.26
2022-08-03T01:20:10.603Z,79.45
2022-08-03T01:22:45.642Z,79.05
2022-08-03T01:25:18.315Z,79.25
2022-08-03T01:27:56.976Z,79.52
2022-08-03T01:30:29.796Z,80.35
2022-08-03T01:33:03.262Z,79.72
2022-08-03T01:35:39.209Z,79.42
2022-08-03T01:38:23.797Z,79.59
2022-08-03T01:40:54.662Z,80.02
2022-08-03T01:44:26.792Z,81.06
2022-08-03T01:46:15.703Z,81.33
2022-08-03T01:48:43.483Z,82.30
2022-08-03T01:51:11.287Z,81.73
2022-08-03T01:53:42.880Z,81.32
2022-08-03T01:56:10.387Z,79.82
2022-08-03T01:58:38.627Z,79.37
2022-08-03T02:01:05.732Z,79.61
2022-08-03T02:03:36.965Z,79.96
2022-08-03T02:06:59.942Z,79.57
2022-08-03T02:08:53.514Z,79.54
2022-08-03T02:11:20.178Z,80.13
2022-08-03T02:13:49.252Z,80.82
2022-08-03T02:16:18.999Z,80.96
2022-08-03T02:18:47.841Z,80.31
2022-08-03T02:21:55.664Z,80.64
2022-08-03T02:24:04.460Z,81.38
2022-08-03T02:26:31.960Z,81.50
2022-08-03T02:29:06.941Z,81.21
2022-08-03T02:31:38.194Z,81.07
2022-08-03T02:34:10.455Z,81.35
2022-08-03T02:36:39.537Z,81.73
2022-08-03T02:39:09.871Z,81.81
2022-08-03T02:41:41.165Z,81.32
2022-08-03T02:44:09.751Z,80.85
2022-08-03T02:46:39.732Z,80.88
2022-08-03T02:49:40.979Z,80.71
2022-08-03T02:51:55.199Z,81.47
2022-08-03T02:54:24.949Z,81.13
2022-08-03T02:56:53.341Z,81.56
2022-08-03T02:59:21.032Z,81.46
2022-08-03T03:01:48.347Z,82.21
2022-08-03T03:04:16.395Z,82.42
2022-08-03T03:06:44.174Z,81.67
2022-08-03T03:09:13.741Z,81.77
2022-08-03T03:11:42.249Z,83.09
2022-08-03T03:14:11.301Z,82.98
2022-08-03T03:16:39.385Z,83.80
2022-08-03T03:19:07.698Z,83.92
2022-08-03T03:21:37.046Z,84.09
2022-08-03T03:24:05.886Z,83.77
2022-08-03T03:26:34.386Z,83.97
2022-08-03T03:29:02.486Z,83.76
2022-08-03T03:31:29.316Z,83.39
2022-08-03T03:33:59.404Z,83.67
2022-08-03T03:36:25.852Z,84.09
2022-08-03T03:38:53.808Z,84.73
2022-08-03T03:41:20.489Z,84.63
2022-08-03T03:43:47.984Z,84.92
2022-08-03T03:46:16.093Z,85.13
2022-08-03T03:48:42.679Z,85.22
2022-08-03T03:51:09.791Z,84.77
2022-08-03T03:53:36.223Z,84.89
2022-08-03T03:56:03.147Z,83.60
2022-08-03T03:58:31.441Z,83.98
2022-08-03T04:00:57.933Z,84.02
2022-08-03T04:03:24.388Z,84.36
2022-08-03T04:06:09.553Z,84.62
2022-08-03T04:08:54.867Z,84.63
2022-08-03T04:11:37.775Z,85.08
2022-08-03T04:14:12.194Z,85.48
2022-08-03T04:16:43.998Z,84.52
2022-08-03T04:19:19.666Z,85.11
2022-08-03T04:21:52.123Z,84.85
2022-08-03T04:24:20.698Z,84.54
2022-08-03T04:26:53.675Z,84.01
2022-08-03T04:29:21.259Z,83.74
2022-08-03T04:31:48.947Z,82.91
2022-08-03T04:34:16.089Z,83.29
2022-08-03T04:36:49.298Z,84.07
2022-08-03T04:39:25.645Z,83.20
2022-08-03T04:42:07.643Z,84.21
2022-08-03T04:44:41.062Z,84.89
2022-08-03T04:47:07.778Z,84.32
2022-08-03T04:49:37.260Z,84.71
2022-08-03T04:52:04.786Z,84.93
2022-08-03T04:54:39.238Z,84.70
2022-08-03T04:57:05.650Z,84.26
2022-08-03T04:59:32.219Z,85.02
2022-08-03T05:01:58.640Z,84.55
2022-08-03T05:04:25.094Z,84.49
2022-08-03T05:06:55.197Z,84.55
2022-08-03T05:09:46.109Z,84.41
2022-08-03T05:12:09.726Z,84.33
2022-08-03T05:14:38.738Z,85.14
2022-08-03T05:17:09.099Z,85.21
2022-08-03T05:19:35.769Z,84.64
2022-08-03T05:22:03.205Z,84.80
2022-08-03T05:24:30.050Z,84.88
2022-08-03T05:26:56.442Z,85.10
2022-08-03T05:29:22.865Z,84.19
2022-08-03T05:31:49.355Z,84.57
2022-08-03T05:34:15.778Z,84.72
2022-08-03T05:36:42.281Z,84.56
2022-08-03T05:39:08.697Z,84.10
2022-08-03T05:41:36.959Z,84.01
2022-08-03T05:44:04.471Z,83.78
2022-08-03T05:46:30.943Z,83.19
2022-08-03T05:48:57.443Z,82.91
2022-08-03T05:51:24.049Z,82.88
2022-08-03T05:53:50.614Z,82.46
2022-08-03T05:56:17.239Z,81.56
2022-08-03T05:58:48.003Z,81.30
2022-08-03T06:01:16.172Z,80.50
2022-08-03T06:03:42.791Z,79.97
2022-08-03T06:06:09.304Z,78.73
2022-08-03T06:08:35.885Z,78.79
2022-08-03T06:11:02.561Z,78.93
2022-08-03T06:13:29.577Z,77.94
2022-08-03T06:15:56.134Z,77.60
2022-08-03T06:18:24.626Z,77.26
2022-08-03T06:20:52.296Z,77.34
2022-08-03T06:23:19.007Z,77.47
2022-08-03T06:25:46.056Z,77.14
2022-08-03T06:28:35.304Z,76.76
2022-08-03T06:31:03.511Z,74.68
2022-08-03T06:34:31.161Z,74.65
2022-08-03T06:36:19.553Z,75.45
2022-08-03T06:38:46.121Z,75.02
2022-08-03T06:41:12.695Z,74.08
2022-08-03T06:44:03.466Z,73.56
2022-08-03T06:46:31.014Z,72.17
2022-08-03T06:48:57.610Z,71.86
2022-08-03T06:52:03.377Z,71.83
2022-08-03T06:54:12.284Z,71.19
2022-08-03T06:56:38.725Z,70.00
2022-08-03T06:59:05.194Z,70.09
2022-08-03T07:01:34.687Z,69.82
2022-08-03T07:04:01.234Z,70.08
2022-08-03T07:06:31.795Z,70.33
2022-08-03T07:08:59.792Z,68.84
2022-08-03T07:11:26.584Z,68.73
2022-08-03T07:13:54.101Z,67.52
2022-08-03T07:16:20.569Z,67.83
2022-08-03T07:18:47.053Z,67.57
2022-08-03T07:21:13.631Z,67.70
2022-08-03T07:23:40.063Z,68.23
2022-08-03T07:26:06.506Z,68.24
2022-08-03T07:28:33.057Z,68.49
2022-08-03T07:30:59.630Z,67.54
2022-08-03T07:33:26.078Z,66.96
2022-08-03T07:35:52.494Z,66.70
2022-08-03T07:38:21.003Z,66.41
2022-08-03T07:40:47.926Z,66.13
2022-08-03T07:43:14.496Z,65.49
2022-08-03T07:45:40.915Z,63.62
2022-08-03T07:48:11.784Z,62.82
2022-08-03T07:50:38.886Z,62.96
2022-08-03T07:53:05.307Z,62.92
2022-08-03T07:55:31.852Z,62.19
2022-08-03T07:58:20.639Z,61.04
2022-08-03T08:00:48.873Z,59.50
2022-08-03T08:03:15.411Z,57.85
2022-08-03T08:05:42.102Z,58.48
2022-08-03T08:08:09.572Z,59.20
2022-08-03T08:10:36.258Z,59.52
2022-08-03T08:13:03.962Z,57.85
2022-08-03T08:15:31.599Z,56.95
2022-08-03T08:18:00.900Z,57.32
2022-08-03T08:20:31.322Z,57.25
2022-08-03T08:23:12.126Z,57.31
2022-08-03T08:25:52.078Z,56.71
2022-08-03T08:28:29.064Z,56.66
2022-08-03T08:30:58.419Z,55.45
2022-08-03T08:33:25.830Z,55.74
2022-08-03T08:35:53.669Z,55.53
2022-08-03T08:38:20.454Z,54.42
2022-08-03T08:40:48.882Z,54.36
2022-08-03T08:43:15.367Z,54.00
2022-08-03T08:45:42.535Z,53.78
2022-08-03T08:48:10.622Z,50.45
2022-08-03T08:50:38.806Z,52.06
2022-08-03T08:53:09.667Z,52.47
2022-08-03T08:55:58.921Z,51.31
2022-08-03T08:58:26.255Z,50.25
2022-08-03T09:00:52.799Z,51.50
2022-08-03T09:03:22.585Z,51.52
2022-08-03T09:05:58.807Z,49.78
2022-08-03T09:08:25.606Z,49.88
2022-08-03T09:10:52.071Z,49.78
2022-08-03T09:13:19.143Z,49.73
2022-08-03T09:15:52.762Z,46.75
2022-08-03T09:18:32.192Z,48.46
2022-08-03T09:21:32.610Z,44.67
2022-08-03T09:24:03.875Z,41.41
2022-08-03T09:26:33.164Z,40.91
2022-08-03T09:29:14.794Z,40.38
2022-08-03T09:31:45.345Z,38.16
2022-08-03T09:34:17.724Z,38.04
2022-08-03T09:36:46.719Z,35.04
2022-08-03T09:39:40.459Z,29.98
2022-08-03T09:42:14.720Z,32.61
2022-08-03T09:44:47.198Z,35.49
2022-08-03T09:47:16.957Z,36.53
2022-08-03T09:49:57.921Z,37.23
2022-08-03T09:52:52.362Z,37.42
2022-08-03T09:56:34.556Z,35.73
2022-08-03T09:58:11.581Z,36.96
2022-08-03T10:01:07.832Z,36.01
2022-08-03T10:04:04.380Z,36.30
2022-08-03T10:06:31.621Z,35.71
2022-08-03T10:09:07.336Z,34.54
2022-08-03T10:11:41.161Z,33.78
2022-08-03T10:14:10.524Z,33.53
2022-08-03T10:16:38.983Z,34.67
2022-08-03T10:19:07.691Z,35.88
2022-08-03T10:21:36.103Z,34.08
2022-08-03T10:24:05.053Z,35.48
2022-08-03T10:26:34.612Z,33.27
2022-08-03T10:29:03.953Z,33.21
2022-08-03T10:31:58.037Z,31.96
2022-08-03T10:34:29.008Z,32.27
2022-08-03T10:36:58.799Z,33.84
2022-08-03T10:39:29.543Z,35.02
2022-08-03T10:42:03.003Z,34.19
2022-08-03T10:44:37.115Z,31.82
2022-08-03T10:47:04.987Z,34.74
2022-08-03T10:49:34.264Z,34.74
2022-08-03T10:52:12.867Z,35.05
2022-08-03T10:55:09.987Z,32.87
2022-08-03T10:57:49.612Z,33.05
2022-08-03T11:00:24.819Z,36.69
2022-08-03T11:03:06.222Z,35.60
2022-08-03T11:05:38.350Z,34.74
2022-08-03T11:08:22.350Z,34.41
2022-08-03T11:10:50.660Z,32.66
2022-08-03T11:13:20.255Z,32.09
2022-08-03T11:15:49.584Z,31.77
2022-08-03T11:18:17.037Z,32.40
2022-08-03T11:20:45.969Z,32.40
2022-08-03T11:23:17.294Z,31.76
2022-08-03T11:26:09.929Z,31.13
2022-08-03T11:28:38.901Z,31.89
2022-08-03T11:31:48.055Z,31.62
2022-08-03T11:34:12.119Z,32.53
2022-08-03T11:37:16.497Z,32.67
2022-08-03T11:39:45.821Z,31.76
2022-08-03T11:42:24.551Z,31.95
2022-08-03T11:44:52.291Z,31.67
2022-08-03T11:47:20.627Z,32.09
2022-08-03T11:49:48.328Z,31.84
2022-08-03T11:52:16.308Z,32.69
2022-08-03T11:54:43.372Z,31.64
2022-08-03T11:57:10.347Z,29.98
2022-08-03T11:59:38.832Z,30.59
2022-08-03T12:02:08.445Z,29.00
2022-08-03T12:04:51.417Z,30.94
2022-08-03T12:08:02.218Z,30.69
2022-08-03T12:10:15.624Z,30.22
2022-08-03T12:12:46.311Z,30.87
2022-08-03T12:15:13.394Z,30.95
2022-08-03T12:17:41.652Z,28.83
2022-08-03T12:20:10.299Z,30.37
2022-08-03T12:22:39.303Z,31.09
2022-08-03T12:25:07.703Z,30.70
2022-08-03T12:27:35.088Z,30.29
2022-08-03T12:30:02.461Z,30.02
2022-08-03T12:32:32.024Z,29.98
2022-08-03T12:35:01.330Z,29.17
2022-08-03T12:37:28.985Z,29.90
2022-08-03T12:40:01.378Z,29.74
2022-08-03T12:42:36.440Z,29.55
2022-08-03T12:45:22.717Z,29.84
2022-08-03T12:48:01.109Z,30.30
2022-08-03T12:50:35.284Z,29.71
2022-08-03T12:53:05.246Z,29.18
2022-08-03T12:55:56.410Z,30.00
2022-08-03T12:58:36.334Z,31.07
2022-08-03T13:01:09.196Z,30.56
2022-08-03T13:03:50.525Z,28.61
2022-08-03T13:06:24.859Z,30.69
2022-08-03T13:09:07.934Z,28.77
2022-08-03T13:11:50.661Z,29.95
2022-08-03T13:14:21.017Z,29.71
2022-08-03T13:16:50.823Z,30.42
2022-08-03T13:19:17.674Z,29.77
2022-08-03T13:22:03.430Z,29.14
2022-08-03T13:24:32.150Z,29.90
2022-08-03T13:26:59.571Z,29.84
2022-08-03T13:29:26.076Z,30.40
2022-08-03T13:31:52.617Z,29.70
2022-08-03T13:34:23.023Z,30.61
2022-08-03T13:37:08.528Z,30.59
2022-08-03T13:39:57.882Z,28.36
2022-08-03T13:42:22.850Z,28.83
2022-08-03T13:44:49.318Z,28.95
2022-08-03T13:47:16.233Z,30.11
2022-08-03T13:49:42.899Z,30.64
2022-08-03T13:52:26.091Z,29.53
2022-08-03T13:54:52.596Z,29.58
2022-08-03T13:58:02.507Z,30.67
2022-08-03T14:00:07.077Z,30.93
2022-08-03T14:02:33.580Z,29.21
2022-08-03T14:05:00.049Z,28.83
2022-08-03T14:07:26.460Z,28.63
2022-08-03T14:09:52.898Z,28.98
2022-08-03T14:12:19.351Z,29.82
2022-08-03T14:14:45.794Z,30.20
2022-08-03T14:17:12.239Z,30.85
2022-08-03T14:19:53.280Z,30.72
2022-08-03T14:22:21.277Z,29.66
2022-08-03T14:24:47.785Z,30.62
2022-08-03T14:27:16.094Z,28.95
2022-08-03T14:29:42.599Z,30.53
2022-08-03T14:32:10.876Z,27.98
2022-08-03T14:34:38.739Z,28.42
2022-08-03T14:37:05.247Z,28.07
2022-08-03T14:39:58.268Z,29.12
2022-08-03T14:42:18.066Z,28.60
2022-08-03T14:44:44.607Z,29.58
2022-08-03T14:47:11.131Z,30.26
2022-08-03T14:50:36.646Z,29.00
2022-08-03T14:52:24.393Z,29.62
2022-08-03T14:54:50.865Z,29.37
2022-08-03T14:57:17.640Z,30.41
2022-08-03T14:59:56.174Z,27.91
2022-08-03T15:02:24.819Z,29.36
2022-08-03T15:04:52.074Z,28.84
2022-08-03T15:07:18.990Z,28.61
2022-08-03T15:09:45.696Z,29.43
2022-08-03T15:12:12.295Z,29.38
2022-08-03T15:14:39.888Z,28.15
2022-08-03T15:17:13.490Z,28.62
2022-08-03T15:20:01.641Z,29.24
2022-08-03T15:22:34.429Z,29.79
2022-08-03T15:26:01.610Z,28.74
2022-08-03T15:28:03.480Z,29.17
2022-08-03T15:30:33.817Z,29.06
2022-08-03T15:33:00.239Z,29.48
2022-08-03T15:35:28.810Z,30.73
2022-08-03T15:37:55.252Z,27.87
2022-08-03T15:40:21.871Z,29.62
2022-08-03T15:42:49.353Z,28.25
2022-08-03T15:45:17.846Z,29.17
2022-08-03T15:47:46.893Z,28.49
2022-08-03T15:50:13.507Z,29.09
2022-08-03T15:52:39.923Z,28.30
2022-08-03T15:55:06.963Z,27.27
2022-08-03T15:57:33.429Z,28.38
2022-08-03T16:00:19.765Z,26.01
2022-08-03T16:03:00.133Z,27.05
2022-08-03T16:05:26.569Z,25.61
2022-08-03T16:07:58.610Z,24.92
2022-08-03T16:10:32.229Z,25.43
2022-08-03T16:12:59.853Z,26.73
2022-08-03T16:15:26.431Z,26.75
2022-08-03T16:17:52.966Z,25.71
2022-08-03T16:20:34.349Z,28.19
2022-08-03T16:23:10.809Z,26.55
2022-08-03T16:25:39.766Z,27.39
2022-08-03T16:28:13.023Z,24.37
2022-08-03T16:30:41.525Z,26.08
2022-08-03T16:33:08.156Z,24.74
2022-08-03T16:35:34.639Z,26.41
2022-08-03T16:38:01.105Z,24.72
2022-08-03T16:40:27.741Z,25.32
2022-08-03T16:42:54.501Z,25.64
2022-08-03T16:45:21.179Z,26.96
2022-08-03T16:47:47.597Z,25.51
2022-08-03T16:50:27.772Z,27.19
2022-08-03T16:52:54.174Z,25.48
2022-08-03T16:55:49.173Z,26.17
2022-08-03T16:58:07.768Z,26.74
2022-08-03T17:00:41.790Z,28.24
2022-08-03T17:03:18.979Z,26.75
2022-08-03T17:05:48.237Z,26.86
2022-08-03T17:08:26.243Z,26.53
2022-08-03T17:10:54.691Z,26.79
2022-08-03T17:13:21.703Z,26.05
2022-08-03T17:16:00.858Z,28.24
2022-08-03T17:18:34.077Z,28.44
2022-08-03T17:21:05.818Z,28.65
2022-08-03T17:23:44.358Z,28.64
2022-08-03T17:26:21.155Z,29.45
2022-08-03T17:28:57.876Z,32.78
2022-08-03T17:31:31.332Z,34.23
2022-08-03T17:34:06.967Z,34.71
2022-08-03T17:37:02.194Z,35.10
2022-08-03T17:39:36.156Z,38.04
2022-08-03T17:42:26.847Z,39.92
2022-08-03T17:44:57.163Z,41.25
2022-08-03T17:47:41.248Z,42.09
2022-08-03T17:50:24.586Z,42.95
2022-08-03T17:53:07.606Z,45.03
2022-08-03T17:55:57.277Z,45.30
2022-08-03T17:58:52.362Z,44.90
2022-08-03T18:02:02.673Z,46.52
2022-08-03T18:04:34.157Z,48.28
2022-08-03T18:10:04.315Z,47.40
2022-08-03T18:12:47.035Z,49.02
2022-08-03T18:15:24.958Z,49.33
2022-08-03T18:17:55.766Z,48.97
2022-08-03T18:20:34.271Z,49.14
2022-08-03T18:23:05.802Z,50.99
2022-08-03T18:28:23.159Z,52.63
2022-08-03T18:30:54.987Z,53.54
2022-08-03T18:34:16.977Z,55.02
2022-08-03T18:36:17.905Z,55.23
2022-08-03T18:38:50.910Z,55.23
2022-08-03T18:41:31.877Z,55.63
2022-08-03T18:44:08.022Z,54.86
2022-08-03T18:47:16.543Z,54.65
2022-08-03T18:50:01.065Z,54.03
2022-08-03T18:52:53.007Z,54.20
2022-08-03T18:55:35.433Z,55.46
2022-08-03T18:58:17.773Z,55.84
2022-08-03T19:01:15.469Z,56.28
2022-08-03T19:04:04.055Z,57.07
2022-08-03T19:06:31.714Z,56.50
2022-08-03T19:09:09.532Z,56.07
2022-08-03T19:12:14.501Z,56.16
2022-08-03T19:14:44.183Z,55.86
2022-08-03T19:17:12.533Z,57.01
2022-08-03T19:19:44.946Z,57.71
2022-08-03T19:22:12.855Z,59.10
2022-08-03T19:24:47.731Z,59.43
2022-08-03T19:27:15.972Z,60.19
2022-08-03T19:30:00.494Z,59.93
2022-08-03T19:32:30.178Z,59.83
2022-08-03T19:34:59.646Z,57.30
2022-08-03T19:37:38.731Z,59.39
2022-08-03T19:40:10.964Z,60.46
2022-08-03T19:42:44.490Z,60.57
2022-08-03T19:45:14.910Z,61.71
2022-08-03T19:48:05.655Z,60.41
2022-08-03T19:50:37.633Z,61.08
2022-08-03T19:53:12.892Z,61.63
2022-08-03T19:55:46.450Z,61.80
2022-08-03T19:58:24.402Z,62.17
2022-08-03T20:00:55.458Z,61.88
2022-08-03T20:03:24.927Z,61.29
2022-08-03T20:05:52.397Z,61.82
2022-08-03T20:08:21.859Z,62.15
2022-08-03T20:10:49.443Z,62.71
2022-08-03T20:13:19.318Z,63.28
2022-08-03T20:15:46.311Z,63.42
2022-08-03T20:18:16.566Z,63.75
2022-08-03T20:20:48.105Z,64.28
2022-08-03T20:23:18.252Z,64.57
2022-08-03T20:25:58.578Z,64.98
2022-08-03T20:28:34.568Z,64.13
2022-08-03T20:31:01.936Z,64.35
2022-08-03T20:33:48.440Z,63.99
2022-08-03T20:36:15.911Z,64.75
2022-08-03T20:38:47.047Z,65.14
2022-08-03T20:41:14.185Z,65.42
2022-08-03T20:43:41.670Z,65.52
2022-08-03T20:46:31.889Z,66.14
2022-08-03T20:48:57.168Z,66.25
2022-08-03T20:51:50.425Z,66.77
2022-08-03T20:54:22.492Z,66.68
2022-08-03T20:56:56.389Z,66.74
2022-08-03T20:59:23.382Z,66.75
2022-08-03T21:01:50.770Z,67.02
2022-08-03T21:04:20.861Z,67.04
2022-08-03T21:06:54.143Z,67.79
2022-08-03T21:09:39.844Z,67.62
2022-08-03T21:12:15.391Z,68.09
2022-08-03T21:12:56.703Z,47.96
2022-08-03T21:13:04.191Z,51.53
2022-08-03T21:15:01.587Z,67.80
2022-08-03T21:17:40.544Z,67.96
2022-08-03T21:20:10.267Z,68.13
2022-08-03T21:22:44.059Z,68.14
2022-08-03T21:25:13.374Z,68.85
2022-08-03T21:27:40.597Z,68.43
2022-08-03T21:30:10.450Z,68.70
2022-08-03T21:32:40.286Z,69.06
2022-08-03T21:35:10.699Z,69.15
2022-08-03T21:37:39.197Z,69.06
2022-08-03T21:40:06.966Z,69.31
2022-08-03T21:42:33.786Z,69.21
2022-08-03T21:45:00.323Z,69.14
2022-08-03T21:47:27.151Z,69.87
2022-08-03T21:50:06.384Z,69.46
2022-08-03T21:52:40.501Z,70.15
2022-08-03T21:55:08.223Z,70.32
2022-08-03T21:57:37.607Z,70.03
2022-08-03T22:00:07.943Z,69.74
2022-08-03T22:02:34.916Z,70.01
2022-08-03T22:05:04.963Z,70.19
2022-08-03T22:07:32.461Z,71.25
2022-08-03T22:10:01.595Z,71.63
2022-08-03T22:12:30.183Z,71.57
2022-08-03T22:15:00.136Z,71.05
2022-08-03T22:17:56.055Z,71.22
2022-08-03T22:20:17.317Z,71.80
2022-08-03T22:22:53.631Z,71.60
2022-08-03T22:25:25.173Z,71.80
2022-08-03T22:27:52.878Z,71.92
2022-08-03T22:30:19.685Z,72.04
2022-08-03T22:32:49.151Z,72.11
2022-08-03T22:35:20.106Z,72.16
2022-08-03T22:37:49.078Z,72.03
2022-08-03T22:40:16.771Z,71.78
2022-08-03T22:42:45.849Z,72.08
2022-08-03T22:46:07.581Z,71.77
2022-08-03T22:48:00.016Z,72.12
2022-08-03T22:50:32.635Z,71.79
2022-08-03T22:53:00.161Z,72.86
2022-08-03T22:55:27.197Z,73.20
2022-08-03T22:57:56.105Z,72.48
2022-08-03T23:00:23.420Z,72.64
2022-08-03T23:02:51.821Z,72.45
2022-08-03T23:06:02.188Z,72.13
2022-08-03T23:08:14.681Z,72.39
2022-08-03T23:10:46.652Z,72.54
2022-08-03T23:13:16.368Z,72.47
2022-08-03T23:15:51.468Z,72.35
2022-08-03T23:18:20.798Z,72.41
2022-08-03T23:20:51.436Z,72.84
2022-08-03T23:23:19.971Z,73.10
2022-08-03T23:25:49.285Z,73.48
2022-08-03T23:28:16.374Z,73.59
2022-08-03T23:30:44.538Z,73.27
2022-08-03T23:33:13.639Z,73.01
2022-08-03T23:36:28.015Z,73.65
2022-08-03T23:38:48.385Z,74.52
2022-08-03T23:41:15.609Z,74.47
2022-08-03T23:43:53.609Z,73.81
2022-08-03T23:46:25.784Z,74.41
2022-08-03T23:48:53.715Z,73.68
2022-08-03T23:51:39.095Z,73.50
2022-08-03T23:54:26.941Z,73.40
2022-08-03T23:57:02.317Z,73.65
2022-08-03T23:59:34.667Z,74.50
